Time;durP1;ratioP1;P1;durP2;ratioP2;P2;SDS_P1;SDS_P2;PMS_P1;PMS_P2;Temp;Humidity;BMP_temperature;BMP_pressure;BME280_temperature;BME280_humidity;BME280_pressure;Samples;Min_cycle;Max_cycle;Signal;HPM_P1;HPM_P2
2022/10/16 00:01:23;;;;;;;9.70;6.40;;;;;;;16.14;100.00;98883.38;4278556;33;20057;-74
2022/10/16 00:03:50;;;;;;;16.15;7.57;;;;;;;16.19;100.00;98837.13;4269960;33;20077;-75
2022/10/16 00:06:20;;;;;;;11.07;5.97;;;;;;;16.40;100.00;98858.63;4295934;33;20057;-75
2022/10/16 00:08:46;;;;;;;10.68;7.78;;;;;;;15.95;100.00;98845.31;4296229;33;20094;-73
2022/10/16 00:11:22;;;;;;;11.43;6.85;;;;;;;16.07;100.00;98872.09;4294603;33;20040;-73
2022/10/16 00:13:50;;;;;;;11.05;7.15;;;;;;;16.24;100.00;98891.44;4296319;33;20115;-74
2022/10/16 00:16:17;;;;;;;12.55;6.60;;;;;;;16.37;100.00;98897.22;4295733;33;20394;-74
2022/10/16 00:18:43;;;;;;;8.55;6.50;;;;;;;16.56;100.00;98895.37;4296354;33;20078;-74
2022/10/16 00:21:18;;;;;;;21.95;6.72;;;;;;;16.57;100.00;98896.97;4305369;33;20062;-75
2022/10/16 00:23:45;;;;;;;11.05;7.32;;;;;;;16.14;100.00;98856.22;4308893;33;20064;-74
2022/10/16 00:26:15;;;;;;;8.20;6.60;;;;;;;16.20;100.00;98844.19;4307670;33;20059;-73
2022/10/16 00:28:41;;;;;;;12.18;7.00;;;;;;;16.30;100.00;98889.44;4301957;33;20059;-73
2022/10/16 00:31:11;;;;;;;11.25;7.07;;;;;;;16.05;100.00;98836.25;4298128;33;20066;-74
2022/10/16 00:33:39;;;;;;;15.73;7.37;;;;;;;16.03;100.00;98844.66;4296240;33;20076;-75
2022/10/16 00:36:07;;;;;;;12.88;7.28;;;;;;;16.24;100.00;98841.69;4278022;33;20511;-73
2022/10/16 00:38:34;;;;;;;12.60;7.62;;;;;;;15.94;100.00;98855.38;4279687;33;20033;-74
2022/10/16 00:41:01;;;;;;;12.68;6.57;;;;;;;15.79;100.00;98844.69;4278313;33;20049;-73
2022/10/16 00:43:40;;;;;;;9.32;6.22;;;;;;;15.75;100.00;98849.84;4278906;33;20033;-73
2022/10/16 00:46:36;;;;;;;11.35;6.20;;;;;;;15.86;100.00;98899.47;4278441;33;20439;-73
2022/10/16 00:49:07;;;;;;;11.57;6.62;;;;;;;16.03;100.00;98898.19;4278871;33;20049;-74
2022/10/16 00:51:41;;;;;;;12.53;6.90;;;;;;;15.98;100.00;98897.13;4272856;33;20060;-74
2022/10/16 00:54:26;;;;;;;12.10;6.78;;;;;;;15.67;100.00;98858.63;4287220;33;20063;-74
2022/10/16 00:56:55;;;;;;;8.88;6.37;;;;;;;15.84;100.00;98852.75;4292984;33;20448;-75
2022/10/16 00:59:25;;;;;;;11.65;6.72;;;;;;;15.46;100.00;98846.34;4287220;33;20075;-74
2022/10/16 01:01:53;;;;;;;11.38;6.35;;;;;;;15.66;100.00;98905.06;4293192;33;20199;-75
2022/10/16 01:04:21;;;;;;;12.43;6.95;;;;;;;15.79;100.00;98888.13;4291305;33;20055;-74
2022/10/16 01:07:09;;;;;;;14.95;6.70;;;;;;;15.60;100.00;98858.97;4289036;33;20071;-74
2022/10/16 01:09:50;;;;;;;11.98;6.50;;;;;;;15.73;100.00;98905.50;4296975;33;20081;-77
2022/10/16 01:12:33;;;;;;;15.73;6.57;;;;;;;15.55;100.00;98905.13;4298354;33;20088;-74
2022/10/16 01:15:25;;;;;;;8.90;6.28;;;;;;;15.40;100.00;98870.03;4298210;33;20044;-74
2022/10/16 01:18:01;;;;;;;10.88;6.87;;;;;;;15.76;100.00;98916.66;4298150;33;20048;-74
2022/10/16 01:20:39;;;;;;;17.50;6.65;;;;;;;15.83;100.00;98910.06;4287434;33;20045;-74
2022/10/16 01:23:18;;;;;;;8.45;6.18;;;;;;;15.49;100.00;98906.28;4279850;33;20089;-76
2022/10/16 01:26:06;;;;;;;11.75;6.75;;;;;;;15.74;100.00;98907.16;4291248;33;20121;-73
2022/10/16 01:28:51;;;;;;;18.80;7.07;;;;;;;15.78;100.00;98902.81;4294973;33;20066;-77
2022/10/16 01:31:22;;;;;;;7.70;5.65;;;;;;;15.53;100.00;98896.47;4294878;33;20070;-74
2022/10/16 01:33:59;;;;;;;14.93;6.78;;;;;;;15.39;100.00;98898.22;4286231;33;20071;-74
2022/10/16 01:36:35;;;;;;;10.75;6.95;;;;;;;15.21;100.00;98900.56;4279444;33;20508;-74
2022/10/16 01:39:02;;;;;;;10.10;6.70;;;;;;;14.82;100.00;98860.72;4281836;33;20026;-74
2022/10/16 01:41:36;;;;;;;11.25;6.80;;;;;;;15.22;100.00;98907.59;4287057;33;20353;-74
2022/10/16 01:44:09;;;;;;;10.75;7.12;;;;;;;15.21;100.00;98891.62;4294566;33;20055;-76
2022/10/16 01:46:39;;;;;;;8.55;6.03;;;;;;;15.50;100.00;98913.31;4295034;33;20100;-74
2022/10/16 01:49:09;;;;;;;13.95;6.25;;;;;;;15.05;100.00;98866.53;4295951;33;20106;-74
2022/10/16 01:51:37;;;;;;;8.80;6.40;;;;;;;14.68;100.00;98876.00;4293995;33;20451;-74
2022/10/16 01:54:08;;;;;;;14.77;6.72;;;;;;;15.13;100.00;98903.87;4299469;33;20362;-74
2022/10/16 01:56:36;;;;;;;13.10;6.90;;;;;;;14.56;100.00;98857.31;4309046;33;20066;-74
2022/10/16 01:59:07;;;;;;;9.38;6.50;;;;;;;14.74;100.00;98885.69;4309130;33;20045;-75
2022/10/16 02:01:36;;;;;;;10.30;6.30;;;;;;;15.23;100.00;98925.47;4307946;33;20066;-77
2022/10/16 02:04:21;;;;;;;11.07;6.70;;;;;;;15.04;100.00;98927.25;4324408;33;20078;-74
2022/10/16 02:06:47;;;;;;;11.05;7.15;;;;;;;14.74;100.00;98880.25;4324419;33;20040;-74
2022/10/16 02:09:16;;;;;;;9.32;6.85;;;;;;;15.28;100.00;98932.75;4328139;33;20048;-77
2022/10/16 02:11:44;;;;;;;11.12;6.82;;;;;;;15.23;100.00;98925.47;4327250;33;20056;-74
2022/10/16 02:14:10;;;;;;;12.52;6.93;;;;;;;14.91;100.00;98879.91;4325868;33;20041;-75
2022/10/16 02:16:40;;;;;;;12.85;6.75;;;;;;;15.33;100.00;98929.22;4329940;33;20059;-75
2022/10/16 02:19:13;;;;;;;13.70;7.10;;;;;;;14.66;100.00;98894.41;4330269;33;20058;-75
2022/10/16 02:21:44;;;;;;;10.57;6.50;;;;;;;15.16;100.00;98895.16;4312060;33;20179;-74
2022/10/16 02:24:28;;;;;;;11.73;6.95;;;;;;;15.06;100.00;98944.03;4310580;33;20067;-74
2022/10/16 02:27:10;;;;;;;10.75;6.05;;;;;;;14.70;100.00;98928.00;4307993;33;20567;-76
2022/10/16 02:29:50;;;;;;;11.18;7.05;;;;;;;15.21;100.00;98933.09;4307935;33;20028;-74
2022/10/16 02:32:21;;;;;;;14.48;7.07;;;;;;;15.26;100.00;98940.38;4293981;33;20083;-75
2022/10/16 02:34:49;;;;;;;12.65;6.22;;;;;;;15.07;100.00;98905.00;4288706;33;20053;-74
2022/10/16 02:37:17;;;;;;;12.95;6.62;;;;;;;14.75;100.00;98946.12;4291312;33;20048;-73
2022/10/16 02:39:44;;;;;;;11.23;7.72;;;;;;;15.42;100.00;98938.38;4295273;33;20041;-73
2022/10/16 02:42:15;;;;;;;17.42;7.70;;;;;;;15.06;100.00;98922.34;4292967;33;20075;-78
2022/10/16 02:44:41;;;;;;;12.15;7.75;;;;;;;15.33;100.00;98940.06;4294419;33;20049;-75
2022/10/16 02:47:14;;;;;;;13.68;8.30;;;;;;;15.12;100.00;98956.47;4293154;33;20313;-74
2022/10/16 02:49:41;;;;;;;10.13;7.45;;;;;;;14.85;100.00;98925.22;4294936;33;20543;-73
2022/10/16 02:52:07;;;;;;;10.70;7.62;;;;;;;14.98;100.00;98950.06;4293702;33;20365;-74
2022/10/16 02:54:33;;;;;;;11.93;8.18;;;;;;;14.67;100.00;98955.66;4313800;33;20961;-73
2022/10/16 02:57:01;;;;;;;15.73;8.20;;;;;;;15.05;100.00;98945.16;4309159;33;20074;-73
2022/10/16 02:59:27;;;;;;;11.30;7.80;;;;;;;14.94;100.00;98908.34;4317657;33;20068;-73
2022/10/16 03:01:54;;;;;;;16.17;8.45;;;;;;;14.60;100.00;98911.78;4312778;33;20417;-74
2022/10/16 03:04:20;;;;;;;16.98;8.50;;;;;;;14.74;100.00;98912.78;4323264;33;20032;-74
2022/10/16 03:06:46;;;;;;;13.90;8.75;;;;;;;14.47;100.00;98914.00;4316351;33;20044;-74
2022/10/16 03:09:13;;;;;;;17.85;7.85;;;;;;;14.74;100.00;98950.72;4298834;33;20055;-74
2022/10/16 03:11:39;;;;;;;14.70;8.77;;;;;;;14.54;100.00;98949.72;4337125;33;20166;-73
2022/10/16 03:14:06;;;;;;;11.35;7.97;;;;;;;14.30;100.00;98918.94;4337854;33;20088;-76
2022/10/16 03:16:32;;;;;;;12.77;9.02;;;;;;;14.33;100.00;98972.56;4320356;33;20044;-74
2022/10/16 03:18:58;;;;;;;16.48;9.18;;;;;;;14.75;100.00;98952.34;4322722;33;20048;-74
2022/10/16 03:21:25;;;;;;;13.55;8.95;;;;;;;14.81;100.00;98934.19;4323579;33;20074;-73
2022/10/16 03:23:51;;;;;;;14.18;8.93;;;;;;;15.15;100.00;98980.31;4322533;33;20074;-73
2022/10/16 03:26:17;;;;;;;19.70;9.15;;;;;;;14.58;100.00;98976.25;4314898;33;20048;-76
2022/10/16 03:28:44;;;;;;;19.50;9.63;;;;;;;14.79;100.00;98971.56;4322354;33;20073;-73
2022/10/16 03:31:10;;;;;;;14.82;8.82;;;;;;;14.74;100.00;98967.00;4321930;33;20036;-73
2022/10/16 03:33:36;;;;;;;17.23;8.73;;;;;;;14.48;100.00;98977.91;4309848;33;20041;-73
2022/10/16 03:36:03;;;;;;;14.87;9.50;;;;;;;14.53;100.00;98926.44;4308625;33;20062;-74
2022/10/16 03:38:36;;;;;;;13.00;8.52;;;;;;;14.98;100.00;98967.16;4307693;33;20410;-73
2022/10/16 03:41:03;;;;;;;19.08;9.70;;;;;;;14.70;100.00;98915.25;4311711;33;20371;-74
2022/10/16 03:43:30;;;;;;;19.58;9.30;;;;;;;15.02;100.00;98934.87;4298399;33;20137;-74
2022/10/16 03:45:56;;;;;;;17.83;9.80;;;;;;;14.87;100.00;98977.25;4321092;33;20091;-74
2022/10/16 03:48:22;;;;;;;13.05;9.82;;;;;;;14.84;100.00;98988.63;4328612;32;20073;-75
2022/10/16 03:50:50;;;;;;;17.20;9.98;;;;;;;14.19;100.00;98928.19;4336348;33;20358;-73
2022/10/16 03:53:16;;;;;;;22.05;9.48;;;;;;;14.61;100.00;98983.84;4333109;33;20104;-73
2022/10/16 03:55:44;;;;;;;14.25;8.75;;;;;;;14.71;100.00;98943.19;4324561;33;20444;-74
2022/10/16 03:58:11;;;;;;;14.70;9.50;;;;;;;14.85;100.00;98974.00;4323446;33;20053;-73
2022/10/16 04:00:42;;;;;;;16.48;9.52;;;;;;;14.95;100.00;98977.72;4320454;33;20062;-74
2022/10/16 04:03:08;;;;;;;17.77;9.38;;;;;;;14.62;100.00;98961.09;4336545;33;20466;-73
2022/10/16 04:05:35;;;;;;;16.23;9.80;;;;;;;14.92;100.00;98962.03;4336914;33;20442;-73
2022/10/16 04:08:01;;;;;;;17.10;9.75;;;;;;;14.03;100.00;98887.63;4323110;33;20032;-73
2022/10/16 04:10:28;;;;;;;15.57;9.95;;;;;;;14.91;100.00;98976.69;4321556;33;20047;-77
2022/10/16 04:12:55;;;;;;;26.98;9.80;;;;;;;14.59;100.00;98964.34;4320799;33;20052;-74
2022/10/16 04:15:23;;;;;;;16.40;9.50;;;;;;;14.87;100.00;98965.56;4311019;33;20087;-75
2022/10/16 04:17:50;;;;;;;13.15;9.00;;;;;;;14.77;100.00;98947.47;4284503;33;20037;-73
2022/10/16 04:20:16;;;;;;;17.55;10.27;;;;;;;14.77;100.00;98982.69;4279379;33;20065;-74
2022/10/16 04:22:43;;;;;;;19.40;9.82;;;;;;;14.69;100.00;98975.16;4261678;33;20063;-75
2022/10/16 04:25:11;;;;;;;14.90;9.45;;;;;;;14.69;100.00;98991.41;4275996;33;20213;-74
2022/10/16 04:27:38;;;;;;;19.75;10.43;;;;;;;15.08;100.00;98993.41;4278028;33;20033;-74
2022/10/16 04:30:05;;;;;;;17.80;10.60;;;;;;;14.95;100.00;98961.47;4276870;33;20113;-74
2022/10/16 04:32:32;;;;;;;16.73;10.50;;;;;;;15.08;100.00;98990.69;4278388;33;20029;-74
2022/10/16 04:34:58;;;;;;;24.12;10.90;;;;;;;15.29;100.00;98993.28;4276133;33;20049;-74
2022/10/16 04:37:25;;;;;;;19.12;10.55;;;;;;;15.11;100.00;98976.56;4278860;33;20038;-74
2022/10/16 04:39:53;;;;;;;21.10;11.68;;;;;;;15.16;100.00;99000.94;4277197;33;20033;-73
2022/10/16 04:42:20;;;;;;;17.27;10.18;;;;;;;14.97;100.00;98959.31;4280449;33;20030;-74
2022/10/16 04:44:46;;;;;;;16.80;10.32;;;;;;;15.02;100.00;99010.78;4287015;33;20067;-73
2022/10/16 04:47:13;;;;;;;20.30;10.32;;;;;;;14.88;100.00;99016.78;4280171;33;20041;-74
2022/10/16 04:49:40;;;;;;;24.73;10.88;;;;;;;14.70;100.00;98971.34;4282221;33;20248;-73
2022/10/16 04:52:06;;;;;;;19.45;10.55;;;;;;;14.60;100.00;98955.13;4280195;33;20059;-73
2022/10/16 04:54:33;;;;;;;16.80;10.60;;;;;;;14.91;100.00;98961.22;4293936;33;20087;-73
2022/10/16 04:56:59;;;;;;;23.42;10.40;;;;;;;14.75;100.00;98987.59;4292753;33;20045;-73
2022/10/16 04:59:25;;;;;;;15.48;9.93;;;;;;;14.38;100.00;98977.97;4295681;33;20828;-73
2022/10/16 05:01:52;;;;;;;15.88;9.65;;;;;;;15.02;100.00;99006.16;4286105;33;20065;-74
2022/10/16 05:04:18;;;;;;;14.38;9.85;;;;;;;14.96;100.00;98968.50;4278963;33;20041;-73
2022/10/16 05:06:44;;;;;;;21.00;11.32;;;;;;;15.01;100.00;98944.06;4280997;33;20041;-77
2022/10/16 05:09:11;;;;;;;21.70;11.63;;;;;;;15.33;100.00;98967.19;4277871;33;20046;-74
2022/10/16 05:11:37;;;;;;;21.30;11.30;;;;;;;15.13;100.00;99001.50;4280748;33;20067;-75
2022/10/16 05:14:04;;;;;;;20.52;9.95;;;;;;;15.08;100.00;99009.66;4281299;33;20041;-75
2022/10/16 05:16:37;;;;;;;19.15;10.48;;;;;;;15.43;100.00;98983.41;4274937;33;20210;-76
2022/10/16 05:19:03;;;;;;;20.58;10.45;;;;;;;14.99;100.00;98959.81;4279808;33;20068;-76
2022/10/16 05:21:29;;;;;;;20.10;10.13;;;;;;;14.99;100.00;98962.53;4272695;33;20067;-76
2022/10/16 05:23:56;;;;;;;20.23;10.57;;;;;;;15.38;100.00;98996.97;4276781;33;20085;-76
2022/10/16 05:26:22;;;;;;;20.25;10.07;;;;;;;14.96;100.00;98930.56;4281005;33;20168;-74
2022/10/16 05:28:50;;;;;;;15.68;10.52;;;;;;;15.40;100.00;99006.47;4274990;33;20050;-77
2022/10/16 05:31:16;;;;;;;16.42;9.70;;;;;;;14.83;100.00;98938.22;4279164;33;20060;-75
2022/10/16 05:33:43;;;;;;;14.27;10.48;;;;;;;14.81;100.00;98977.56;4292185;33;20530;-74
2022/10/16 05:36:10;;;;;;;14.73;10.30;;;;;;;15.34;100.00;98987.81;4295763;33;20033;-74
2022/10/16 05:38:38;;;;;;;15.23;10.75;;;;;;;15.35;100.00;99003.81;4294766;33;20045;-74
2022/10/16 05:41:06;;;;;;;21.73;10.50;;;;;;;15.49;100.00;99014.81;4292569;33;20037;-75
2022/10/16 05:43:35;;;;;;;25.00;9.82;;;;;;;15.26;100.00;98968.31;4295052;33;20292;-74
2022/10/16 05:46:05;;;;;;;14.35;9.60;;;;;;;15.66;100.00;98991.91;4297197;33;20096;-76
2022/10/16 05:48:40;;;;;;;19.87;9.63;;;;;;;15.29;100.00;98998.69;4297212;33;20378;-74
2022/10/16 05:51:11;;;;;;;15.95;10.43;;;;;;;15.04;100.00;98992.31;4302998;33;20439;-74
2022/10/16 05:53:39;;;;;;;15.13;10.30;;;;;;;15.56;100.00;99019.94;4315635;33;20154;-77
2022/10/16 05:56:08;;;;;;;21.05;9.57;;;;;;;15.39;100.00;99025.75;4322687;33;20557;-77
2022/10/16 05:58:37;;;;;;;15.13;9.73;;;;;;;15.57;100.00;99033.22;4324701;33;20032;-77
2022/10/16 06:01:09;;;;;;;15.85;9.23;;;;;;;16.00;100.00;99029.09;4309333;33;20090;-77
2022/10/16 06:03:35;;;;;;;16.98;10.23;;;;;;;15.36;100.00;98996.47;4317454;33;20114;-77
2022/10/16 06:06:20;;;;;;;18.67;10.35;;;;;;;14.96;100.00;98971.22;4318657;33;20049;-77
2022/10/16 06:08:48;;;;;;;19.80;10.88;;;;;;;15.20;100.00;98985.69;4314502;33;20048;-76
2022/10/16 06:11:17;;;;;;;22.27;10.00;;;;;;;15.58;100.00;99040.25;4312877;33;20187;-77
2022/10/16 06:13:45;;;;;;;22.58;10.50;;;;;;;15.50;100.00;99005.59;4312930;33;20028;-78
2022/10/16 06:16:13;;;;;;;13.05;9.43;;;;;;;15.69;100.00;99051.06;4307907;33;20045;-77
2022/10/16 06:18:39;;;;;;;23.65;11.73;;;;;;;15.77;100.00;99026.03;4320095;33;20434;-76
2022/10/16 06:21:16;;;;;;;20.10;10.15;;;;;;;16.20;100.00;99052.56;4322041;33;20052;-77
2022/10/16 06:23:43;;;;;;;17.02;10.90;;;;;;;15.79;100.00;99056.41;4317039;33;20041;-78
2022/10/16 06:26:12;;;;;;;20.90;9.98;;;;;;;15.40;100.00;99055.31;4316538;33;20044;-78
2022/10/16 06:28:39;;;;;;;15.88;9.80;;;;;;;15.52;100.00;99065.81;4311427;33;20091;-76
2022/10/16 06:31:08;;;;;;;16.52;9.98;;;;;;;15.40;100.00;99049.06;4310529;33;20093;-77
2022/10/16 06:33:35;;;;;;;15.75;9.90;;;;;;;16.05;100.00;99077.94;4294137;33;20057;-78
2022/10/16 06:36:08;;;;;;;13.60;9.13;;;;;;;16.38;100.00;99080.91;4292825;33;20029;-77
2022/10/16 06:38:35;;;;;;;16.52;9.13;;;;;;;16.47;100.00;99076.47;4294747;33;20044;-77
2022/10/16 06:41:02;;;;;;;11.77;8.82;;;;;;;16.06;100.00;99050.50;4295773;33;20181;-77
2022/10/16 06:43:32;;;;;;;14.25;9.25;;;;;;;16.70;100.00;99091.16;4296136;33;20119;-76
2022/10/16 06:45:59;;;;;;;16.65;10.32;;;;;;;16.93;100.00;99084.16;4294076;33;20100;-79
2022/10/16 06:48:26;;;;;;;15.95;9.85;;;;;;;16.64;100.00;99085.00;4294971;33;20062;-77
2022/10/16 06:50:58;;;;;;;15.57;9.23;;;;;;;16.28;100.00;99077.19;4295008;33;20130;-78
2022/10/16 06:53:25;;;;;;;12.88;9.20;;;;;;;16.93;100.00;99073.28;4292639;33;20047;-78
2022/10/16 06:55:52;;;;;;;15.07;9.30;;;;;;;17.28;100.00;99084.81;4294562;33;20111;-79
2022/10/16 06:58:18;;;;;;;15.15;9.60;;;;;;;16.82;100.00;99098.94;4291889;33;20036;-77
2022/10/16 07:00:45;;;;;;;14.15;9.20;;;;;;;16.54;100.00;99104.09;4293695;33;20291;-79
2022/10/16 07:03:12;;;;;;;15.75;9.50;;;;;;;16.73;100.00;99100.66;4294973;33;20085;-79
2022/10/16 07:05:40;;;;;;;11.77;8.32;;;;;;;16.61;100.00;99076.59;4283427;33;20045;-78
2022/10/16 07:08:07;;;;;;;20.55;9.25;;;;;;;16.49;100.00;99112.31;4307145;33;20041;-78
2022/10/16 07:10:33;;;;;;;17.20;9.75;;;;;;;16.64;100.00;99120.34;4299911;33;20445;-77
2022/10/16 07:13:00;;;;;;;16.77;10.07;;;;;;;16.88;100.00;99130.41;4297120;33;20078;-77
2022/10/16 07:15:28;;;;;;;14.93;9.50;;;;;;;16.59;100.00;99120.34;4301073;33;20044;-75
2022/10/16 07:17:54;;;;;;;14.40;9.52;;;;;;;16.56;100.00;99107.38;4303507;33;20438;-77
2022/10/16 07:20:20;;;;;;;16.50;9.27;;;;;;;16.94;100.00;99123.03;4303989;33;20062;-76
2022/10/16 07:22:48;;;;;;;14.82;9.68;;;;;;;16.69;100.00;99103.97;4304228;33;20250;-77
2022/10/16 07:25:14;;;;;;;23.70;10.30;;;;;;;16.75;100.00;99098.47;4306917;33;20090;-77
2022/10/16 07:27:40;;;;;;;18.20;11.18;;;;;;;16.91;100.00;99080.91;4305956;33;20177;-77
2022/10/16 07:30:08;;;;;;;16.67;10.32;;;;;;;16.37;100.00;99049.38;4303811;33;20033;-77
2022/10/16 07:32:34;;;;;;;15.70;9.55;;;;;;;16.55;100.00;99058.75;4300112;33;20033;-78
2022/10/16 07:35:00;;;;;;;16.37;10.80;;;;;;;16.47;100.00;99099.00;4236400;33;20193;-77
2022/10/16 07:37:27;;;;;;;15.57;10.02;;;;;;;16.74;100.00;99085.94;4236002;33;20034;-78
2022/10/16 07:39:54;;;;;;;20.90;10.25;;;;;;;16.34;100.00;98959.22;4238174;33;20447;-77
2022/10/16 07:42:20;;;;;;;18.35;11.23;;;;;;;17.00;100.00;99084.59;4225975;33;20039;-80
2022/10/16 07:44:47;;;;;;;15.85;10.07;;;;;;;17.10;100.00;99052.94;4221181;33;20055;-77
2022/10/16 07:47:13;;;;;;;20.77;9.93;;;;;;;17.19;100.00;99097.44;4220556;33;20074;-77
2022/10/16 07:49:40;;;;;;;16.83;9.55;;;;;;;17.87;100.00;99103.53;4221330;33;20066;-77
2022/10/16 07:52:07;;;;;;;20.15;10.85;;;;;;;18.17;100.00;99109.66;4208256;34;20051;-79
2022/10/16 07:54:34;;;;;;;15.77;10.35;;;;;;;17.71;100.00;99092.91;4208056;34;20048;-78
2022/10/16 07:57:00;;;;;;;12.30;9.25;;;;;;;17.81;100.00;99112.94;4219771;33;20031;-78
2022/10/16 07:59:27;;;;;;;15.68;9.30;;;;;;;17.78;100.00;99131.44;4219547;33;20046;-75
2022/10/16 08:01:53;;;;;;;16.70;10.07;;;;;;;17.30;100.00;99088.03;4221230;33;20581;-78
2022/10/16 08:04:19;;;;;;;23.00;11.23;;;;;;;17.89;100.00;99115.00;4221324;33;20089;-77
2022/10/16 08:06:46;;;;;;;22.40;8.75;;;;;;;17.84;100.00;99125.91;4242607;33;20107;-78
2022/10/16 08:09:12;;;;;;;19.10;9.98;;;;;;;17.72;100.00;99127.19;4253052;33;20545;-78
2022/10/16 08:11:39;;;;;;;16.75;9.75;;;;;;;17.84;100.00;99112.31;4246634;33;20093;-77
2022/10/16 08:14:05;;;;;;;19.95;10.02;;;;;;;18.34;100.00;99137.16;4248397;33;20100;-76
2022/10/16 08:16:32;;;;;;;18.10;9.70;;;;;;;17.56;100.00;99104.81;4248499;33;20487;-77
2022/10/16 08:18:58;;;;;;;19.23;9.82;;;;;;;17.94;100.00;99134.00;4248981;33;20230;-76
2022/10/16 08:21:25;;;;;;;13.23;9.13;;;;;;;17.69;100.00;99135.13;4257395;33;20030;-79
2022/10/16 08:23:53;;;;;;;16.23;9.43;;;;;;;17.90;100.00;99138.41;4284191;33;20037;-77
2022/10/16 08:26:20;;;;;;;17.15;9.75;;;;;;;18.28;100.00;99149.25;4277543;33;20464;-76
2022/10/16 08:28:50;;;;;;;15.48;9.38;;;;;;;18.26;100.00;99159.66;4247111;33;20483;-78
2022/10/16 08:31:17;;;;;;;14.63;8.98;;;;;;;17.71;100.00;99147.37;4251682;33;20444;-77
2022/10/16 08:33:46;;;;;;;11.82;8.75;;;;;;;18.15;100.00;99161.72;4250818;33;20049;-77
2022/10/16 08:36:14;;;;;;;13.45;9.05;;;;;;;18.05;100.00;99151.78;4251334;33;20089;-79
2022/10/16 08:38:40;;;;;;;18.62;10.57;;;;;;;18.45;100.00;99160.41;4258081;33;20108;-78
2022/10/16 08:41:09;;;;;;;17.80;9.93;;;;;;;18.08;100.00;99162.09;4272686;33;20033;-81
2022/10/16 08:43:51;;;;;;;14.38;9.27;;;;;;;18.48;100.00;99165.25;4274523;33;20089;-80
2022/10/16 08:46:36;;;;;;;16.05;9.43;;;;;;;18.34;100.00;99120.81;4274370;33;20078;-76
2022/10/16 08:49:03;;;;;;;13.02;8.60;;;;;;;18.82;100.00;99169.56;4271327;33;20079;-78
2022/10/16 08:51:35;;;;;;;16.98;10.15;;;;;;;18.70;100.00;99161.09;4231671;33;20141;-76
2022/10/16 08:54:04;;;;;;;22.40;9.13;;;;;;;18.43;100.00;99129.91;4221286;33;20076;-77
2022/10/16 08:56:31;;;;;;;12.40;8.50;;;;;;;17.80;100.00;99095.75;4226953;33;20064;-78
2022/10/16 08:58:59;;;;;;;12.85;8.98;;;;;;;18.38;100.00;99175.53;4251203;33;20049;-78
2022/10/16 09:01:37;;;;;;;13.07;9.32;;;;;;;17.92;100.00;99133.47;4248403;33;20030;-77
2022/10/16 09:05:03;;;;;;;13.93;9.27;;;;;;;17.88;100.00;99162.41;4250334;33;20319;-78
2022/10/16 09:07:46;;;;;;;15.70;8.65;;;;;;;17.85;100.00;99130.28;4208252;34;20031;-78
2022/10/16 09:10:33;;;;;;;21.08;9.30;;;;;;;18.31;100.00;99156.81;4207558;34;20065;-78
2022/10/16 09:13:13;;;;;;;16.73;9.93;;;;;;;18.32;100.00;99123.81;4208391;34;20038;-78
2022/10/16 09:15:51;;;;;;;22.67;9.73;;;;;;;18.70;100.00;99161.09;4205812;34;20387;-76
2022/10/16 09:18:27;;;;;;;15.80;10.23;;;;;;;18.49;100.00;99117.00;4212862;34;20424;-78
2022/10/16 09:21:09;;;;;;;13.07;9.63;;;;;;;18.56;100.00;99160.25;4223561;34;20047;-79
2022/10/16 09:23:37;;;;;;;15.43;10.20;;;;;;;18.64;100.00;99133.09;4247365;33;20075;-79
2022/10/16 09:26:05;;;;;;;12.60;8.40;;;;;;;19.13;100.00;99158.12;4251487;33;20404;-78
2022/10/16 09:28:38;;;;;;;13.57;8.35;;;;;;;18.59;100.00;99162.34;4253405;33;20033;-78
2022/10/16 09:31:05;;;;;;;11.32;8.85;;;;;;;19.27;100.00;99151.84;4251839;33;20388;-77
2022/10/16 09:33:38;;;;;;;15.90;9.25;;;;;;;19.26;100.00;99155.66;4252820;33;20378;-78
2022/10/16 09:36:06;;;;;;;12.37;8.43;;;;;;;18.92;100.00;99121.41;4254074;33;20042;-78
2022/10/16 09:38:36;;;;;;;15.10;8.23;;;;;;;19.14;100.00;99164.38;4285723;33;20037;-79
2022/10/16 09:41:24;;;;;;;12.73;9.45;;;;;;;19.17;100.00;99126.38;4306955;33;20044;-77
2022/10/16 09:43:56;;;;;;;15.40;8.82;;;;;;;19.64;100.00;99160.88;4295095;33;20033;-78
2022/10/16 09:46:34;;;;;;;18.83;8.97;;;;;;;18.81;100.00;99140.69;4295301;33;20172;-79
2022/10/16 09:49:04;;;;;;;12.40;8.48;;;;;;;19.24;100.00;99121.31;4295382;33;20037;-79
2022/10/16 09:51:35;;;;;;;11.55;8.02;;;;;;;19.03;100.00;99139.19;4295178;33;20343;-78
2022/10/16 09:54:17;;;;;;;19.42;9.10;;;;;;;19.28;100.00;99131.63;4296404;33;20162;-79
2022/10/16 09:56:51;;;;;;;15.00;8.60;;;;;;;19.46;100.00;99171.63;4293855;33;20094;-78
2022/10/16 09:59:20;;;;;;;19.83;8.48;;;;;;;19.92;100.00;99173.38;4296516;33;20041;-78
2022/10/16 10:01:55;;;;;;;16.45;9.18;;;;;;;19.45;100.00;99137.28;4295672;33;20098;-78
2022/10/16 10:04:24;;;;;;;10.90;8.05;;;;;;;20.00;100.00;99174.59;4295081;33;20040;-78
2022/10/16 10:06:56;;;;;;;13.05;9.07;;;;;;;20.14;100.00;99177.28;4301500;33;20045;-78
2022/10/16 10:09:25;;;;;;;15.40;8.35;;;;;;;20.66;100.00;99174.94;4310766;33;20049;-78
2022/10/16 10:11:52;;;;;;;18.15;8.10;;;;;;;20.71;100.00;99175.91;4309423;33;20054;-79
2022/10/16 10:14:24;;;;;;;15.13;8.45;;;;;;;19.70;100.00;99176.06;4309376;33;20033;-76
2022/10/16 10:17:01;;;;;;;11.43;8.15;;;;;;;19.35;100.00;99153.84;4281411;33;20071;-78
2022/10/16 10:19:27;;;;;;;9.98;7.93;;;;;;;19.14;100.00;99145.28;4281294;33;20081;-78
2022/10/16 10:21:54;;;;;;;14.63;7.78;;;;;;;19.08;100.00;99150.00;4280153;33;20099;-79
2022/10/16 10:24:20;;;;;;;12.95;7.57;;;;;;;18.77;100.00;99145.13;4276375;33;20022;-78
2022/10/16 10:27:11;;;;;;;10.07;7.43;;;;;;;19.18;100.00;99138.91;4267243;33;20085;-79
2022/10/16 10:29:53;;;;;;;14.85;7.62;;;;;;;19.00;100.00;99143.38;4265671;33;20097;-79
2022/10/16 10:32:29;;;;;;;;;;;;;;;19.92;100.00;99170.66;4267183;33;20084;-78
2022/10/16 10:35:19;;;;;;;15.90;7.45;;;;;;;19.05;100.00;99183.38;4287428;33;20284;-78
2022/10/16 10:38:14;;;;;;;11.02;6.60;;;;;;;19.52;100.00;99181.34;4310950;33;20033;-78
2022/10/16 10:41:10;;;;;;;8.35;7.20;;;;;;;19.87;100.00;99148.91;4311715;33;20052;-77
2022/10/16 10:44:07;;;;;;;15.45;7.82;;;;;;;19.75;100.00;99181.41;4310764;33;20078;-78
2022/10/16 10:46:40;;;;;;;9.45;6.40;;;;;;;20.28;100.00;99178.03;4308385;33;20430;-77
2022/10/16 10:49:13;;;;;;;11.55;7.40;;;;;;;20.25;100.00;99181.38;4311597;33;20029;-78
2022/10/16 10:52:05;;;;;;;12.85;6.20;;;;;;;19.59;100.00;99181.75;4310480;33;20052;-78
2022/10/16 10:54:37;;;;;;;9.70;7.12;;;;;;;20.29;100.00;99137.81;4311752;33;20397;-77
2022/10/16 10:57:21;;;;;;;8.85;7.45;;;;;;;20.22;100.00;99142.94;4312051;33;20095;-77
2022/10/16 11:00:26;;;;;;;17.35;6.37;;;;;;;19.83;100.00;99126.06;4310266;33;20508;-78
2022/10/16 11:03:17;;;;;;;10.32;6.70;;;;;;;19.71;100.00;99144.91;4310915;33;20383;-78
2022/10/16 11:08:32;;;;;;;9.50;7.80;;;;;;;19.76;100.00;99139.34;4310741;33;20071;-78
2022/10/16 11:11:07;;;;;;;9.43;5.68;;;;;;;20.87;100.00;99174.41;4311524;33;20371;-78
2022/10/16 11:13:42;;;;;;;13.82;6.07;;;;;;;20.29;100.00;99160.47;4312077;33;20082;-79
2022/10/16 11:16:18;;;;;;;9.65;6.07;;;;;;;20.48;100.00;99102.06;4308115;33;20083;-78
2022/10/16 11:18:54;;;;;;;7.72;5.10;;;;;;;20.80;100.00;99130.25;4309741;33;20033;-78
2022/10/16 11:21:22;;;;;;;6.18;4.82;;;;;;;20.29;100.00;99132.34;4308373;33;20040;-79
2022/10/16 11:24:11;;;;;;;8.02;5.75;;;;;;;21.44;100.00;99164.59;4309770;33;20044;-77
2022/10/16 11:26:42;;;;;;;11.63;5.55;;;;;;;21.49;100.00;99183.66;4310133;33;20321;-78
2022/10/16 11:29:18;;;;;;;13.05;5.55;;;;;;;21.21;100.00;99161.97;4310495;33;20067;-78
2022/10/16 11:31:53;;;;;;;10.77;5.07;;;;;;;21.12;100.00;99120.06;4308150;33;20058;-77
2022/10/16 11:34:29;;;;;;;8.02;5.12;;;;;;;21.65;100.00;99171.13;4309653;33;20083;-78
2022/10/16 11:37:03;;;;;;;9.65;5.30;;;;;;;21.82;100.00;99139.37;4308812;33;20040;-78